createdAt,value
2018-06-21T00:02:14.102Z,10.00
2018-06-21T00:04:42.477Z,9.43
2018-06-21T00:07:10.834Z,13.43
2018-06-21T00:09:39.204Z,10.60
2018-06-21T00:12:07.537Z,8.50
2018-06-21T00:14:35.861Z,9.27
2018-06-21T00:17:04.186Z,6.73
2018-06-21T00:19:32.546Z,6.70
2018-06-21T00:22:00.914Z,7.97
2018-06-21T00:24:29.321Z,8.70
2018-06-21T00:26:57.677Z,8.77
2018-06-21T00:29:26.019Z,8.60
2018-06-21T00:31:54.345Z,8.70
2018-06-21T00:34:23.041Z,7.13
2018-06-21T00:36:51.117Z,8.67
2018-06-21T00:39:19.466Z,9.87
2018-06-21T00:41:47.823Z,10.60
2018-06-21T00:44:16.185Z,9.23
2018-06-21T00:46:44.529Z,7.97
2018-06-21T00:49:12.696Z,7.87
2018-06-21T00:51:41.019Z,8.80
2018-06-21T00:54:09.414Z,9.43
2018-06-21T00:56:37.777Z,12.10
2018-06-21T00:59:06.141Z,9.33
2018-06-21T01:01:34.809Z,9.57
2018-06-21T01:04:03.161Z,10.17
2018-06-21T01:06:31.533Z,11.10
2018-06-21T01:08:59.878Z,10.33
2018-06-21T01:11:28.201Z,8.87
2018-06-21T01:13:56.557Z,8.50
2018-06-21T01:16:24.879Z,9.13
2018-06-21T01:18:56.178Z,7.90
2018-06-21T01:21:24.509Z,9.10
2018-06-21T01:23:52.912Z,7.37
2018-06-21T01:26:21.282Z,8.10
2018-06-21T01:28:49.738Z,6.33
2018-06-21T01:31:18.257Z,7.63
2018-06-21T01:33:46.605Z,6.50
2018-06-21T01:36:14.940Z,7.20
2018-06-21T01:38:43.315Z,8.87
2018-06-21T01:41:11.671Z,7.50
2018-06-21T01:43:39.994Z,6.43
2018-06-21T01:46:08.348Z,6.10
2018-06-21T01:48:36.676Z,8.30
2018-06-21T01:51:05.085Z,8.03
2018-06-21T01:53:33.441Z,6.63
2018-06-21T01:56:01.786Z,9.90
2018-06-21T01:58:30.112Z,7.10
2018-06-21T02:00:58.496Z,7.33
2018-06-21T02:03:26.854Z,7.97
2018-06-21T02:05:55.289Z,7.20
2018-06-21T02:08:23.637Z,7.20
2018-06-21T02:10:52.092Z,6.37
2018-06-21T02:13:20.433Z,12.50
2018-06-21T02:15:48.778Z,7.30
2018-06-21T02:18:17.105Z,8.53
2018-06-21T02:20:45.173Z,8.10
2018-06-21T02:23:13.541Z,8.83
2018-06-21T02:25:41.894Z,7.07
2018-06-21T02:28:10.258Z,9.33
2018-06-21T02:30:38.598Z,8.17
2018-06-21T02:33:06.669Z,8.10
2018-06-21T02:35:35.033Z,7.53
2018-06-21T02:38:03.394Z,8.50
2018-06-21T02:40:31.731Z,8.40
2018-06-21T02:43:00.092Z,11.53
2018-06-21T02:45:28.485Z,13.17
2018-06-21T02:47:56.869Z,9.60
2018-06-21T02:50:25.205Z,8.87
2018-06-21T02:52:53.649Z,8.07
2018-06-21T02:55:21.965Z,8.00
2018-06-21T02:57:50.306Z,9.37
2018-06-21T03:00:18.713Z,10.60
2018-06-21T03:02:47.335Z,11.00
2018-06-21T03:05:16.052Z,10.03
2018-06-21T03:07:44.510Z,13.93
2018-06-21T03:10:12.833Z,12.30
2018-06-21T03:12:41.178Z,11.23
2018-06-21T03:15:09.585Z,11.47
2018-06-21T03:17:37.925Z,12.00
2018-06-21T03:20:06.286Z,10.53
2018-06-21T03:22:34.649Z,10.70
2018-06-21T03:27:37.783Z,12.27
2018-06-21T03:30:06.173Z,15.23
2018-06-21T03:32:34.607Z,12.27
2018-06-21T03:35:02.950Z,12.60
2018-06-21T03:37:31.281Z,16.40
2018-06-21T03:39:59.376Z,19.53
2018-06-21T03:42:27.801Z,17.10
2018-06-21T03:44:56.178Z,16.40
2018-06-21T03:47:24.513Z,19.20
2018-06-21T03:49:52.929Z,17.37
2018-06-21T03:52:21.304Z,17.53
2018-06-21T03:54:49.669Z,22.87
2018-06-21T03:57:18.034Z,16.90
2018-06-21T03:59:46.370Z,22.53
2018-06-21T04:02:14.751Z,20.93
2018-06-21T04:04:43.134Z,19.60
2018-06-21T04:07:11.510Z,19.33
2018-06-21T04:09:39.862Z,19.23
2018-06-21T04:12:08.222Z,20.30
2018-06-21T04:14:36.557Z,20.30
2018-06-21T04:17:04.645Z,18.87
2018-06-21T04:19:33.004Z,21.00
2018-06-21T04:22:01.354Z,21.50
2018-06-21T04:24:29.703Z,19.70
2018-06-21T04:26:58.111Z,19.00
2018-06-21T04:29:26.497Z,21.27
2018-06-21T04:31:54.886Z,20.77
2018-06-21T04:34:23.261Z,19.90
2018-06-21T04:36:51.621Z,20.40
2018-06-21T04:39:20.003Z,19.80
2018-06-21T04:41:48.416Z,18.83
2018-06-21T04:44:16.753Z,18.57
2018-06-21T04:46:45.090Z,19.40
2018-06-21T04:49:13.479Z,20.27
2018-06-21T04:51:41.827Z,22.33
2018-06-21T04:54:10.034Z,22.80
2018-06-21T04:56:38.385Z,20.67
2018-06-21T04:59:06.764Z,22.07
2018-06-21T05:01:35.217Z,19.70
2018-06-21T05:04:03.705Z,20.27
2018-06-21T05:06:32.054Z,19.90
2018-06-21T05:09:00.401Z,17.93
2018-06-21T05:11:28.833Z,16.27
2018-06-21T05:13:57.422Z,16.77
2018-06-21T05:16:25.744Z,16.30
2018-06-21T05:18:54.181Z,20.37
2018-06-21T05:21:22.637Z,16.80
2018-06-21T05:23:50.981Z,13.53
2018-06-21T05:26:19.471Z,15.80
2018-06-21T05:28:47.815Z,16.83
2018-06-21T05:31:16.166Z,16.73
2018-06-21T05:33:44.574Z,15.50
2018-06-21T05:36:12.967Z,12.20
2018-06-21T05:38:41.018Z,13.93
2018-06-21T05:41:09.460Z,11.67
2018-06-21T05:43:37.796Z,14.63
2018-06-21T05:46:06.155Z,10.00
2018-06-21T05:48:34.498Z,11.10
2018-06-21T05:51:02.832Z,7.60
2018-06-21T05:53:31.258Z,5.93
2018-06-21T05:55:59.594Z,10.13
2018-06-21T05:58:27.663Z,9.93
2018-06-21T06:00:56.058Z,7.27
2018-06-21T06:03:24.366Z,11.23
2018-06-21T06:05:52.814Z,4.83
2018-06-21T06:08:21.269Z,5.93
2018-06-21T06:10:49.525Z,6.30
2018-06-21T06:13:17.838Z,6.17
2018-06-21T06:15:45.942Z,7.93
2018-06-21T06:18:14.302Z,9.07
2018-06-21T06:20:42.655Z,10.23
2018-06-21T06:23:11.015Z,6.00
2018-06-21T06:25:39.371Z,11.97
2018-06-21T06:28:07.709Z,6.37
2018-06-21T06:30:36.094Z,11.40
2018-06-21T06:33:04.464Z,16.30
2018-06-21T06:35:32.794Z,13.13
2018-06-21T06:38:01.530Z,10.43
2018-06-21T06:40:30.031Z,11.20
2018-06-21T06:42:58.262Z,12.50
2018-06-21T06:45:26.710Z,10.00
2018-06-21T06:47:55.045Z,6.20
2018-06-21T06:50:23.632Z,5.60
2018-06-21T06:52:52.831Z,11.90
2018-06-21T06:55:21.684Z,6.53
2018-06-21T06:57:50.023Z,3.73
2018-06-21T07:00:18.379Z,8.53
2018-06-21T07:02:46.703Z,17.77
2018-06-21T07:05:15.058Z,5.90
2018-06-21T07:07:44.073Z,15.30
2018-06-21T07:10:12.367Z,8.60
2018-06-21T07:12:40.694Z,11.90
2018-06-21T07:15:09.011Z,4.93
2018-06-21T07:17:38.469Z,13.13
2018-06-21T07:20:06.808Z,5.60
2018-06-21T07:22:35.398Z,12.97
2018-06-21T07:25:03.747Z,7.27
2018-06-21T07:27:32.099Z,10.83
2018-06-21T07:30:00.426Z,10.53
2018-06-21T07:32:28.762Z,9.60
2018-06-21T07:34:57.087Z,6.67
2018-06-21T07:37:25.415Z,6.07
2018-06-21T07:39:53.782Z,8.33
2018-06-21T07:42:22.074Z,16.50
2018-06-21T07:44:51.068Z,8.87
2018-06-21T07:47:19.411Z,7.20
2018-06-21T07:49:47.735Z,10.40
2018-06-21T07:52:16.051Z,8.13
2018-06-21T07:54:44.411Z,6.47
2018-06-21T07:57:12.734Z,8.00
2018-06-21T07:59:41.065Z,8.93
2018-06-21T08:02:09.443Z,9.07
2018-06-21T08:04:37.780Z,9.83
2018-06-21T08:07:06.100Z,5.90
2018-06-21T08:09:34.435Z,8.40
2018-06-21T08:12:02.755Z,6.40
2018-06-21T08:14:31.063Z,6.10
2018-06-21T08:16:59.391Z,2.70
2018-06-21T08:22:02.581Z,6.47
2018-06-21T08:24:30.904Z,7.40
2018-06-21T08:26:59.220Z,6.27
2018-06-21T08:29:27.524Z,11.03
2018-06-21T08:31:55.962Z,8.57
2018-06-21T08:34:23.994Z,7.33
2018-06-21T08:36:52.375Z,8.07
2018-06-21T08:39:21.283Z,10.70
2018-06-21T08:41:49.602Z,2.80
2018-06-21T08:44:17.931Z,4.43
2018-06-21T08:46:46.279Z,6.80
2018-06-21T08:49:14.594Z,6.43
2018-06-21T08:51:42.902Z,4.60
2018-06-21T08:54:11.243Z,4.63
2018-06-21T08:56:39.571Z,3.73
2018-06-21T08:59:07.907Z,6.50
2018-06-21T09:01:36.247Z,6.80
2018-06-21T09:04:04.694Z,3.90
2018-06-21T13:53:09.029Z,3.30
2018-06-21T15:39:21.585Z,6.00
2018-06-21T15:41:49.922Z,4.33
2018-06-21T15:44:18.723Z,2.40
2018-06-21T15:46:47.187Z,5.80
2018-06-21T15:49:16.256Z,4.87
2018-06-21T15:51:44.579Z,4.00
2018-06-21T15:54:13.022Z,4.07
2018-06-21T15:56:41.427Z,2.57
2018-06-21T15:59:10.119Z,2.83
2018-06-21T16:01:38.434Z,7.33
2018-06-21T16:04:07.111Z,10.90
2018-06-21T16:06:35.166Z,2.07
2018-06-21T16:09:04.547Z,5.03
2018-06-21T16:11:32.966Z,2.80
2018-06-21T16:14:02.472Z,4.93
2018-06-21T16:16:30.555Z,2.80
2018-06-21T16:18:58.885Z,5.40
2018-06-21T16:21:27.243Z,4.47
2018-06-21T16:23:56.511Z,3.20
2018-06-21T16:26:26.499Z,6.80
2018-06-21T16:28:57.642Z,4.20
2018-06-21T16:31:29.756Z,5.43
2018-06-21T16:33:59.411Z,10.33
2018-06-21T16:36:30.060Z,4.07
2018-06-21T16:38:59.939Z,5.23
2018-06-21T16:41:28.917Z,9.30
2018-06-21T16:43:59.039Z,8.30
2018-06-21T16:46:28.146Z,9.83
2018-06-21T16:48:59.034Z,10.40
2018-06-21T16:51:29.002Z,12.50
2018-06-21T16:53:58.107Z,6.33
2018-06-21T16:56:26.470Z,10.10
2018-06-21T16:58:55.984Z,7.33
2018-06-21T17:01:24.231Z,6.20
2018-06-21T17:03:53.221Z,5.07
2018-06-21T17:06:29.675Z,9.90
2018-06-21T17:08:58.619Z,9.85
2018-06-21T17:11:28.073Z,7.83
2018-06-21T17:13:58.035Z,12.90
2018-06-21T17:16:27.410Z,11.60
2018-06-21T17:18:56.317Z,8.17
2018-06-21T17:21:25.471Z,14.60
2018-06-21T17:23:54.204Z,7.33
2018-06-21T17:26:25.055Z,5.07
2018-06-21T17:28:55.364Z,12.40
2018-06-21T17:31:24.514Z,10.40
2018-06-21T17:33:52.574Z,9.83
2018-06-21T17:36:21.472Z,11.53
2018-06-21T17:38:49.815Z,5.67
2018-06-21T17:41:18.130Z,9.10
2018-06-21T17:43:46.543Z,10.97
2018-06-21T17:46:14.847Z,7.67
2018-06-21T17:48:43.197Z,11.17
2018-06-21T17:51:11.548Z,14.43
2018-06-21T17:53:39.903Z,9.03
2018-06-21T17:56:08.225Z,7.10
2018-06-21T17:58:36.603Z,8.80
2018-06-21T18:01:05.691Z,7.67
2018-06-21T18:03:34.790Z,6.10
2018-06-21T18:06:03.151Z,7.60
2018-06-21T18:08:31.564Z,3.37
2018-06-21T18:10:59.990Z,4.87
2018-06-21T18:13:28.367Z,6.00
2018-06-21T18:15:56.750Z,16.23
2018-06-21T18:18:25.178Z,9.80
2018-06-21T18:20:53.731Z,10.60
2018-06-21T18:23:22.131Z,5.30
2018-06-21T18:25:50.592Z,7.23
2018-06-21T18:28:18.643Z,7.57
2018-06-21T18:30:47.555Z,5.07
2018-06-21T18:33:16.847Z,8.00
2018-06-21T18:35:45.204Z,6.27
2018-06-21T18:38:13.606Z,8.90
2018-06-21T18:40:41.955Z,7.57
2018-06-21T18:43:10.322Z,8.67
2018-06-21T18:45:39.356Z,5.93
2018-06-21T18:48:07.672Z,6.73
2018-06-21T18:50:35.978Z,8.77
2018-06-21T18:53:04.334Z,8.20
2018-06-21T18:55:32.687Z,9.17
2018-06-21T18:58:01.027Z,4.83
2018-06-21T19:00:30.636Z,5.67
2018-06-21T19:02:58.938Z,9.77
2018-06-21T19:05:27.247Z,8.37
2018-06-21T19:08:01.379Z,6.33
2018-06-21T19:10:35.350Z,9.57
2018-06-21T19:13:03.698Z,13.27
2018-06-21T19:15:32.038Z,8.30
2018-06-21T19:18:00.383Z,6.27
2018-06-21T19:20:28.823Z,8.67
2018-06-21T19:22:57.139Z,8.47
2018-06-21T19:25:25.486Z,5.40
2018-06-21T19:27:53.968Z,10.70
2018-06-21T19:30:22.831Z,7.93
2018-06-21T19:32:51.260Z,12.77
2018-06-21T19:35:19.799Z,10.33
2018-06-21T19:37:48.295Z,16.10
2018-06-21T19:40:16.650Z,15.67
2018-06-21T19:42:44.978Z,3.50
2018-06-21T19:45:13.115Z,6.27
2018-06-21T19:47:41.515Z,11.87
2018-06-21T19:50:09.881Z,10.18
2018-06-21T19:52:38.314Z,5.80
2018-06-21T19:55:06.751Z,9.13
2018-06-21T19:57:35.092Z,12.55
2018-06-21T20:00:03.918Z,6.60
2018-06-21T20:02:37.651Z,11.00
2018-06-21T20:34:46.750Z,9.10
2018-06-21T20:42:11.027Z,8.10
2018-06-21T20:54:31.419Z,23.20
2018-06-21T20:56:59.768Z,9.90
2018-06-21T20:59:28.104Z,4.60
2018-06-21T21:01:56.538Z,4.35
2018-06-21T21:04:26.944Z,6.35
2018-06-21T21:06:55.277Z,7.90
2018-06-21T21:09:23.650Z,4.40
2018-06-21T21:11:52.021Z,7.70
2018-06-21T21:14:20.423Z,15.20
2018-06-21T21:16:48.514Z,5.03
2018-06-21T21:19:16.876Z,7.90
2018-06-21T21:21:44.947Z,12.67
2018-06-21T21:24:13.265Z,8.20
2018-06-21T21:26:42.219Z,10.17
2018-06-21T21:29:10.418Z,7.53
2018-06-21T21:31:38.805Z,9.97
2018-06-21T21:34:07.859Z,10.98
2018-06-21T21:36:36.277Z,7.90
2018-06-21T21:39:06.403Z,12.27
2018-06-21T21:41:34.722Z,10.30
2018-06-21T21:44:03.091Z,15.50
2018-06-21T21:46:31.451Z,10.50
2018-06-21T21:48:59.844Z,10.70
2018-06-21T21:51:28.267Z,9.20
2018-06-21T21:53:56.611Z,7.60
2018-06-21T21:56:24.967Z,5.10
2018-06-21T21:58:53.398Z,39.95
2018-06-21T22:01:21.743Z,6.12
2018-06-21T22:06:24.748Z,10.63
2018-06-21T22:08:53.163Z,19.00
2018-06-21T22:11:21.607Z,8.67
2018-06-21T22:13:54.228Z,14.00
2018-06-21T22:16:22.580Z,6.03
2018-06-21T22:18:50.916Z,8.98
2018-06-21T22:21:19.258Z,8.80
2018-06-21T22:23:47.393Z,8.10
2018-06-21T22:26:15.746Z,10.80
2018-06-21T22:28:44.062Z,8.95
2018-06-21T22:31:12.416Z,8.88
2018-06-21T22:33:40.758Z,10.15
2018-06-21T22:36:09.113Z,11.33
2018-06-21T22:38:37.569Z,11.55
2018-06-21T22:41:06.227Z,14.53
2018-06-21T22:43:34.959Z,10.63
2018-06-21T22:46:03.728Z,4.70
2018-06-21T22:48:32.079Z,7.17
2018-06-21T22:51:00.387Z,7.10
2018-06-21T22:53:28.736Z,8.60
2018-06-21T22:55:57.083Z,8.60
2018-06-21T22:58:25.506Z,9.50
2018-06-21T23:00:53.875Z,6.70
2018-06-21T23:03:22.246Z,5.63
2018-06-21T23:05:50.978Z,8.88
2018-06-21T23:08:19.286Z,8.80
2018-06-21T23:10:47.851Z,5.83
2018-06-21T23:13:15.904Z,7.92
2018-06-21T23:15:44.375Z,5.92
2018-06-21T23:18:17.543Z,4.70
2018-06-21T23:20:45.862Z,8.55
2018-06-21T23:23:14.170Z,5.60
2018-06-21T23:25:42.748Z,6.07
2018-06-21T23:28:11.177Z,3.55
2018-06-21T23:30:39.479Z,7.65
2018-06-21T23:33:07.785Z,7.53
2018-06-21T23:35:36.132Z,11.43
2018-06-21T23:38:04.526Z,5.17
2018-06-21T23:40:32.923Z,6.45
2018-06-21T23:43:01.238Z,4.60
2018-06-21T23:45:29.552Z,3.20
2018-06-21T23:47:57.926Z,10.58
2018-06-21T23:50:26.368Z,10.43
2018-06-21T23:52:54.717Z,5.77
2018-06-21T23:55:22.883Z,3.77
2018-06-21T23:57:51.238Z,7.85
